Weather reports worldwide

Advertisment
Latacunga, Ecuador (84123): temperature & dewpoint: 11.06.2019 21:00:00 - 17.06.2019 21:00:00 (ECT)Latacunga, Ecuador (84123): wind speed: 11.06.2019 21:00:00 - 17.06.2019 21:00:00 (ECT)Latacunga, Ecuador (84123): wind direction: 11.06.2019 21:00:00 - 17.06.2019 21:00:00 (ECT)Latacunga, Ecuador (84123): visibility: 11.06.2019 21:00:00 - 17.06.2019 21:00:00 (ECT)Latacunga, Ecuador (84123): precipitation: 11.06.2019 21:00:00 - 17.06.2019 21:00:00 (ECT)
Date & Time tt [°C] td [°C] ff [km/h] ff [kn] dd vv [km] rr [mm]
17.06.2019 21:00:00 - - - - - - -
17.06.2019 20:00:00 10,0 8,0 26 14 S 10 -
17.06.2019 19:00:00 11,0 8,0 24 13 S 10 -
17.06.2019 18:00:00 12,0 8,0 28 15 S 10 -
17.06.2019 17:00:00 13,0 8,0 28 15 S 10 -
17.06.2019 16:00:00 15,0 8,3 37 20 S 10 -
17.06.2019 15:00:00 15,0 8,0 31 17 S 10 -
17.06.2019 14:00:00 15,0 8,0 28 15 S 10 -
17.06.2019 13:00:00 15,0 9,0 35 19 S 10 -
17.06.2019 12:00:00 15,0 9,0 26 14 SSE 10 -
17.06.2019 11:00:00 - - - - - - -
17.06.2019 10:00:00 12,4 6,8 22 12 SSE 10 -
17.06.2019 09:00:00 11,0 6,0 24 13 SSE 10 -
17.06.2019 08:00:00 9,0 6,0 24 13 SSE 10 -
17.06.2019 07:00:00 8,4 6,5 21 11 S 10 0,0
17.06.2019 06:00:00 8,0 6,0 15 8 S 10 -
17.06.2019 05:00:00 9,0 7,0 16 9 S 10 -
17.06.2019 04:00:00 9,0 7,0 16 9 S 10 -
17.06.2019 03:00:00 9,0 7,0 21 11 S 10 -
17.06.2019 02:00:00 9,0 7,0 18 10 S 10 -
17.06.2019 01:00:00 9,0 8,0 15 8 S 10 -
17.06.2019 00:00:00 9,0 8,0 22 12 S 10 -
16.06.2019 23:00:00 10,0 8,0 4 2 SE 10 -
16.06.2019 22:00:00 9,0 8,0 18 10 S 10 -
16.06.2019 21:00:00 9,0 8,0 22 12 S 10 -
16.06.2019 20:00:00 10,0 8,0 24 13 S 10 -
16.06.2019 19:00:00 10,9 8,5 28 15 S 10 0,0
16.06.2019 18:00:00 12,0 9,0 29 16 S 10 -
16.06.2019 17:00:00 14,0 9,0 29 16 S 10 -
16.06.2019 16:00:00 15,0 9,0 28 15 S 10 -
16.06.2019 15:00:00 15,0 10,0 35 19 SSE 10 -
16.06.2019 14:00:00 16,0 10,0 29 16 SSE 10 -
16.06.2019 13:00:00 15,0 9,2 28 15 S 10 0,0
16.06.2019 12:00:00 14,0 10,0 29 16 S 10 -
16.06.2019 11:00:00 13,0 10,0 28 15 S 10 -
16.06.2019 10:00:00 11,7 9,6 21 11 S 10 -
16.06.2019 09:00:00 11,0 9,0 18 10 S 10 -
16.06.2019 08:00:00 10,0 9,0 11 6 SSE 10 -
16.06.2019 07:00:00 9,3 8,5 9 5 SSW 10 -
16.06.2019 06:00:00 9,0 9,0 13 7 S 10 -
16.06.2019 05:00:00 9,0 9,0 8 4 S 10 -
16.06.2019 04:00:00 9,0 8,0 2 1 ESE 10 -
16.06.2019 03:00:00 9,0 9,0 9 5 SSW 10 -
16.06.2019 02:00:00 9,0 9,0 13 7 S 10 -
16.06.2019 01:00:00 10,0 9,0 16 9 S 10 -
16.06.2019 00:00:00 10,0 9,0 21 11 S 8 -
15.06.2019 23:00:00 10,0 10,0 15 8 SSE 10 -
15.06.2019 22:00:00 11,0 9,0 9 5 SSW 10 -
15.06.2019 21:00:00 11,0 9,0 13 7 S 10 -
15.06.2019 20:00:00 11,0 10,0 2 1 ESE 10 -
15.06.2019 19:00:00 11,2 9,6 5 3 N 10 0,0
15.06.2019 18:00:00 13,0 10,0 4 2 NNE 10 -
15.06.2019 17:00:00 14,0 10,0 5 3 NE 10 -
15.06.2019 16:00:00 13,4 9,6 9 5 SSE 10 -
15.06.2019 15:00:00 14,0 10,0 11 6 SSE 10 -
15.06.2019 14:00:00 15,0 9,0 13 7 SSE 10 -
15.06.2019 13:00:00 15,8 8,5 16 9 SSE 10 0,0
15.06.2019 12:00:00 15,0 8,0 16 9 S 10 -
15.06.2019 11:00:00 14,0 8,0 15 8 SSE 10 -
15.06.2019 10:00:00 12,0 9,0 11 6 S 10 -
15.06.2019 09:00:00 11,0 8,0 9 5 S 10 -
15.06.2019 08:00:00 10,0 8,0 5 3 SSE 10 -
15.06.2019 07:00:00 9,1 7,9 2 1 ESE 10 0,0
15.06.2019 06:00:00 8,0 8,0 5 3 ENE 10 -
15.06.2019 05:00:00 9,0 8,0 4 2 NNW 10 -
15.06.2019 04:00:00 9,0 8,0 2 1 N 10 -
15.06.2019 03:00:00 9,0 8,0 4 2 SSE 10 -
15.06.2019 02:00:00 9,0 8,0 8 4 SSW 10 -
15.06.2019 01:00:00 9,0 8,0 8 4 S 10 -
15.06.2019 00:00:00 9,0 8,0 5 3 SSW 10 -
14.06.2019 23:00:00 9,0 8,0 4 2 N 10 -
14.06.2019 22:00:00 10,0 8,0 5 3 SE 10 -
14.06.2019 21:00:00 10,0 8,0 5 3 SSE 10 -
14.06.2019 20:00:00 10,0 8,0 18 10 S 10 -
14.06.2019 19:00:00 - - - - - - -
14.06.2019 18:00:00 12,0 8,0 21 11 S 10 -
14.06.2019 17:00:00 15,0 9,0 28 15 SSE 10 -
14.06.2019 16:00:00 15,6 9,1 28 15 S 10 -
14.06.2019 15:00:00 13,0 9,0 26 14 S 10 -
14.06.2019 14:00:00 14,0 9,0 28 15 S 10 -
14.06.2019 13:00:00 14,0 9,0 21 11 S 10 -
14.06.2019 12:00:00 14,0 9,0 16 9 S 10 -
14.06.2019 11:00:00 13,0 10,0 18 10 S 10 -
14.06.2019 10:00:00 11,3 8,2 13 7 S 10 -
14.06.2019 09:00:00 11,0 9,0 13 7 S 10 -
14.06.2019 08:00:00 9,0 8,0 8 4 S 10 -
14.06.2019 07:00:00 8,7 7,8 8 4 SSE 10 -
14.06.2019 06:00:00 8,0 7,0 9 5 S 10 -
14.06.2019 05:00:00 8,0 7,0 5 3 S 10 -
14.06.2019 04:00:00 8,0 8,0 4 2 SSW 10 -
14.06.2019 03:00:00 9,0 8,0 8 4 S 10 -
14.06.2019 02:00:00 9,0 8,0 2 1 NNE 10 -
14.06.2019 01:00:00 9,0 8,0 4 2 SW 10 -
14.06.2019 00:00:00 9,0 8,0 8 4 SSW 10 -
13.06.2019 23:00:00 10,0 7,0 8 4 SW 10 -
13.06.2019 22:00:00 9,0 8,0 8 4 SSW 10 -
13.06.2019 21:00:00 10,0 8,0 8 4 SSW 10 -
13.06.2019 20:00:00 10,0 8,0 15 8 S 10 -
13.06.2019 19:00:00 11,0 8,0 18 10 SSE 10 -
13.06.2019 18:00:00 12,0 7,0 24 13 S 10 -
13.06.2019 17:00:00 14,0 8,0 21 11 SSE 10 -
13.06.2019 16:00:00 14,0 8,0 15 8 SSE 10 -
13.06.2019 15:00:00 15,0 9,0 24 13 S 10 -
13.06.2019 14:00:00 14,0 9,0 29 16 S 10 -
13.06.2019 13:00:00 14,0 8,0 21 11 S 10 -
13.06.2019 12:00:00 13,0 8,0 24 13 S 10 -
13.06.2019 11:00:00 14,0 8,0 26 14 S 10 -
13.06.2019 10:00:00 12,0 9,0 18 10 S 10 -
13.06.2019 09:00:00 11,0 8,0 8 4 S 10 -
13.06.2019 08:00:00 9,0 8,0 5 3 SSW 10 -
13.06.2019 07:00:00 9,0 8,0 8 4 S 6 -
13.06.2019 06:00:00 8,0 8,0 5 3 S 8 -
13.06.2019 05:00:00 8,0 8,0 2 1 WNW 10 -
13.06.2019 04:00:00 8,0 8,0 8 4 N 10 -
13.06.2019 03:00:00 8,0 7,0 5 3 NNW 10 -
13.06.2019 02:00:00 8,0 7,0 5 3 WNW 8 -
13.06.2019 01:00:00 8,0 7,0 4 2 WNW 8 -
13.06.2019 00:00:00 8,0 7,0 4 2 NNW 10 -
12.06.2019 23:00:00 8,0 7,0 5 3 N 10 -
12.06.2019 22:00:00 9,0 7,0 9 5 SW 10 -
12.06.2019 21:00:00 10,0 7,0 13 7 SSW 10 -
12.06.2019 20:00:00 9,0 7,0 9 5 S 10 -
12.06.2019 19:00:00 10,9 6,8 18 10 S 10 0,0
12.06.2019 18:00:00 13,0 8,0 26 14 S 10 -
12.06.2019 17:00:00 15,0 7,0 26 14 S 10 -
12.06.2019 16:00:00 15,6 7,9 26 14 S 10 -
12.06.2019 15:00:00 15,0 8,0 26 14 S 10 -
12.06.2019 14:00:00 14,0 8,0 24 13 S 10 -
12.06.2019 13:00:00 13,0 9,0 29 16 S 10 -
12.06.2019 12:00:00 13,0 8,0 28 15 S 10 -
12.06.2019 11:00:00 12,0 9,0 24 13 S 10 -
12.06.2019 10:00:00 12,4 8,7 26 14 S 10 -
12.06.2019 09:00:00 11,0 9,0 21 11 S 10 -
12.06.2019 08:00:00 9,0 8,0 18 10 S 10 -
12.06.2019 07:00:00 9,0 8,4 13 7 S 10 -
12.06.2019 06:00:00 9,0 8,0 8 4 S 10 -
12.06.2019 05:00:00 9,0 8,0 8 4 SW 10 -
12.06.2019 04:00:00 9,0 8,0 8 4 SSW 10 -
12.06.2019 03:00:00 9,0 8,0 5 3 SSE 10 -
12.06.2019 02:00:00 9,0 8,0 9 5 WSW 10 -
12.06.2019 01:00:00 9,0 8,0 8 4 SW 10 -
12.06.2019 00:00:00 9,0 8,0 9 5 S 10 -
11.06.2019 23:00:00 9,0 8,0 9 5 S 10 -
11.06.2019 22:00:00 10,0 8,0 8 4 SSW 10 -
11.06.2019 21:00:00 10,0 8,0 8 4 S 10 -

tt = temperature
td = dewpoint
ff = wind speed
dd = wind direction
vv = visibility
rr = precipitation

Next stations